Time;durP1;ratioP1;P1;durP2;ratioP2;P2;SDS_P1;SDS_P2;PMS_P1;PMS_P2;Temp;Humidity;BMP_temperature;BMP_pressure;BME280_temperature;BME280_humidity;BME280_pressure;Samples;Min_cycle;Max_cycle;Signal;HPM_P1;HPM_P2
2023/05/29 00:00:27;;;;;;;;;;;;;;;16.17;44.55;98059.16;5150555;27;19919;-61
2023/05/29 00:02:55;;;;;;;;;;;;;;;16.42;44.43;98070.91;5151111;27;19931;-64
2023/05/29 00:05:23;;;;;;;;;;;;;;;16.30;44.77;98068.16;5150336;27;19919;-60
2023/05/29 00:07:52;;;;;;;;;;;;;;;16.28;44.70;98065.78;5138398;27;19920;-60
2023/05/29 00:10:20;;;;;;;;;;;;;;;16.33;44.37;98064.75;5149238;27;20360;-63
2023/05/29 00:12:48;;;;;;;;;;;;;;;16.11;45.34;98066.84;5147812;27;19924;-67
2023/05/29 00:15:16;;;;;;;;;;;;;;;16.39;44.52;98068.84;5146866;27;19931;-60
2023/05/29 00:17:44;;;;;;;;;;;;;;;16.04;44.69;98058.41;5143238;27;19958;-61
2023/05/29 00:20:12;;;;;;;;;;;;;;;15.92;45.39;98067.38;5140237;27;19926;-63
2023/05/29 00:22:40;;;;;;;;;;;;;;;15.97;45.09;98069.91;5134435;27;19937;-60
2023/05/29 00:25:09;;;;;;;;;;;;;;;15.97;44.82;98071.84;5130963;27;19961;-61
2023/05/29 00:27:37;;;;;;;;;;;;;;;16.19;44.85;98063.19;5145590;27;20333;-60
2023/05/29 00:30:06;;;;;;;;;;;;;;;16.28;44.94;98070.47;5123967;27;20272;-61
2023/05/29 00:32:36;;;;;;;;;;;;;;;16.16;45.39;98063.84;5127913;27;20245;-62
2023/05/29 00:35:04;;;;;;;;;;;;;;;15.85;45.34;98069.91;5129116;27;20018;-60
2023/05/29 00:37:32;;;;;;;;;;;;;;;15.66;46.05;98062.25;5131757;27;19919;-60
2023/05/29 00:40:00;;;;;;;;;;;;;;;15.77;45.68;98062.63;5134669;27;20571;-60
2023/05/29 00:42:29;;;;;;;;;;;;;;;15.64;46.29;98061.78;5128681;27;19968;-61
2023/05/29 00:44:57;;;;;;;;;;;;;;;15.60;46.42;98051.81;5129074;27;20247;-61
2023/05/29 00:47:25;;;;;;;;;;;;;;;15.88;45.62;98052.00;5120053;27;19927;-67
2023/05/29 00:49:53;;;;;;;;;;;;;;;15.60;46.25;98052.63;5122510;27;19973;-60
2023/05/29 00:52:21;;;;;;;;;;;;;;;15.44;46.64;98057.94;5125829;27;20514;-61
2023/05/29 00:54:48;;;;;;;;;;;;;;;15.72;46.00;98062.84;5134728;27;19954;-61
2023/05/29 00:57:16;;;;;;;;;;;;;;;15.57;46.32;98060.72;5124378;27;19954;-61
2023/05/29 00:59:45;;;;;;;;;;;;;;;15.34;47.12;98071.28;5128247;27;19919;-60
2023/05/29 01:02:14;;;;;;;;;;;;;;;15.49;46.78;98073.38;5117766;27;20628;-60
2023/05/29 01:04:42;;;;;;;;;;;;;;;15.67;46.66;98072.06;5139652;27;19919;-61
2023/05/29 01:07:09;;;;;;;;;;;;;;;15.47;46.77;98067.44;5130277;27;19931;-60
2023/05/29 01:09:37;;;;;;;;;;;;;;;15.43;46.70;98082.94;5154532;27;19918;-60
2023/05/29 01:12:14;;;;;;;;;;;;;;;15.29;46.96;98077.00;5129548;27;19954;-60
2023/05/29 01:14:49;;;;;;;;;;;;;;;15.56;46.31;98070.88;5133786;27;19955;-60
2023/05/29 01:17:19;;;;;;;;;;;;;;;15.47;46.50;98064.72;5126818;27;19927;-61
2023/05/29 01:20:06;;;;;;;;;;;;;;;15.53;46.51;98068.03;5115554;27;20353;-60
2023/05/29 01:22:38;;;;;;;;;;;;;;;15.69;46.20;98067.03;5125065;28;19919;-60
2023/05/29 01:25:10;;;;;;;;;;;;;;;15.65;46.17;98066.13;5113113;28;19920;-62
2023/05/29 01:27:40;;;;;;;;;;;;;;;15.56;46.21;98059.13;5117991;28;19919;-61
2023/05/29 01:30:08;;;;;;;;;;;;;;;15.67;46.38;98063.84;5122559;28;19920;-60
2023/05/29 01:32:36;;;;;;;;;;;;;;;15.65;47.07;98060.63;5123902;28;20022;-61
2023/05/29 01:35:06;;;;;;;;;;;;;;;15.54;46.51;98064.94;5121205;28;20309;-61
2023/05/29 01:37:34;;;;;;;;;;;;;;;15.50;46.92;98058.56;5118094;28;19919;-63
2023/05/29 01:40:04;;;;;;;;;;;;;;;15.38;47.01;98061.25;5128767;28;20010;-62
2023/05/29 01:42:31;;;;;;;;;;;;;;;15.46;47.11;98052.16;5127975;27;19965;-60
2023/05/29 01:45:01;;;;;;;;;;;;;;;15.42;47.03;98059.44;5122615;28;19973;-61
2023/05/29 01:47:28;;;;;;;;;;;;;;;15.52;46.88;98055.47;5126725;28;19919;-60
2023/05/29 01:49:56;;;;;;;;;;;;;;;15.41;47.42;98053.19;5120547;27;19947;-67
2023/05/29 01:52:24;;;;;;;;;;;;;;;15.53;46.69;98052.38;5116391;28;19919;-60
2023/05/29 01:54:52;;;;;;;;;;;;;;;15.13;48.02;98061.22;5126083;28;20363;-62
2023/05/29 01:57:20;;;;;;;;;;;;;;;15.12;47.82;98048.63;5143524;27;19927;-61
2023/05/29 01:59:48;;;;;;;;;;;;;;;15.18;47.44;98055.53;5126532;28;19955;-61
2023/05/29 02:02:17;;;;;;;;;;;;;;;15.27;47.72;98062.81;5115746;27;19919;-61
2023/05/29 02:04:46;;;;;;;;;;;;;;;15.19;47.73;98054.38;5115170;27;19920;-61
2023/05/29 02:07:15;;;;;;;;;;;;;;;15.36;47.44;98052.59;5118880;27;20331;-71
2023/05/29 02:09:43;;;;;;;;;;;;;;;15.42;47.18;98046.56;5134932;27;19919;-62
2023/05/29 02:12:11;;;;;;;;;;;;;;;15.23;47.89;98049.00;5116486;27;19923;-61
2023/05/29 02:14:40;;;;;;;;;;;;;;;15.33;47.54;98045.84;5120690;27;19920;-61
2023/05/29 02:17:09;;;;;;;;;;;;;;;15.10;48.39;98050.94;5121282;27;19951;-61
2023/05/29 02:19:38;;;;;;;;;;;;;;;15.13;48.26;98044.78;5122431;27;19919;-61
2023/05/29 02:22:06;;;;;;;;;;;;;;;15.17;48.03;98040.22;5117880;27;19919;-62
2023/05/29 02:24:34;;;;;;;;;;;;;;;15.20;47.59;98036.03;5124771;27;19919;-62
2023/05/29 02:27:03;;;;;;;;;;;;;;;14.78;48.73;98033.38;5124686;27;19956;-62
2023/05/29 02:29:30;;;;;;;;;;;;;;;14.95;48.55;98043.34;5124862;27;19920;-62
2023/05/29 02:31:58;;;;;;;;;;;;;;;15.04;48.39;98040.53;5116047;27;19920;-62
2023/05/29 02:34:26;;;;;;;;;;;;;;;15.04;48.29;98033.13;5125831;27;19920;-68
2023/05/29 02:36:56;;;;;;;;;;;;;;;15.01;48.31;98030.25;5120007;27;19959;-62
2023/05/29 02:39:24;;;;;;;;;;;;;;;14.90;48.63;98036.13;5120592;27;19924;-61
2023/05/29 02:41:52;;;;;;;;;;;;;;;14.84;49.04;98042.16;5122430;27;19931;-62
2023/05/29 02:44:20;;;;;;;;;;;;;;;14.87;48.96;98039.56;5119480;27;20002;-61
2023/05/29 02:46:48;;;;;;;;;;;;;;;14.85;48.84;98027.34;5121046;27;20365;-61
2023/05/29 02:49:18;;;;;;;;;;;;;;;14.72;49.31;98036.66;5118096;27;19920;-60
2023/05/29 02:51:46;;;;;;;;;;;;;;;14.79;48.98;98034.16;5123210;27;20360;-62
2023/05/29 02:54:15;;;;;;;;;;;;;;;14.34;50.39;98034.84;5119244;27;19927;-61
2023/05/29 02:56:42;;;;;;;;;;;;;;;14.63;49.33;98033.97;5129370;27;19927;-65
2023/05/29 02:59:11;;;;;;;;;;;;;;;14.46;49.76;98031.38;5130968;27;20271;-61
2023/05/29 03:01:38;;;;;;;;;;;;;;;14.48;50.29;98029.91;5116815;27;20014;-62
2023/05/29 03:04:07;;;;;;;;;;;;;;;14.54;49.52;98034.06;5126515;27;20365;-60
2023/05/29 03:06:36;;;;;;;;;;;;;;;14.35;50.20;98030.97;5116909;27;20436;-63
2023/05/29 03:09:04;;;;;;;;;;;;;;;14.18;49.78;98033.81;5132374;27;19931;-61
2023/05/29 03:11:35;;;;;;;;;;;;;;;13.82;51.25;98035.94;5130824;27;19927;-69
2023/05/29 03:14:03;;;;;;;;;;;;;;;14.11;50.73;98040.63;5124835;27;19970;-63
2023/05/29 03:16:32;;;;;;;;;;;;;;;14.21;50.29;98041.34;5123506;27;19968;-61
2023/05/29 03:19:02;;;;;;;;;;;;;;;14.26;50.28;98041.16;5122508;27;19967;-61
2023/05/29 03:21:31;;;;;;;;;;;;;;;14.39;49.77;98037.38;5126550;27;19965;-61
2023/05/29 03:23:59;;;;;;;;;;;;;;;14.24;50.19;98041.50;5129924;27;20018;-61
2023/05/29 03:26:27;;;;;;;;;;;;;;;14.37;49.85;98040.41;5126738;27;19968;-61
2023/05/29 03:28:56;;;;;;;;;;;;;;;14.38;49.79;98036.56;5130243;27;20274;-65
2023/05/29 03:31:26;;;;;;;;;;;;;;;14.46;49.92;98043.09;5153045;27;19963;-61
2023/05/29 03:33:54;;;;;;;;;;;;;;;14.37;50.14;98045.88;5129278;27;19919;-67
2023/05/29 03:36:28;;;;;;;;;;;;;;;14.44;49.59;98039.91;5148141;27;20010;-61
2023/05/29 03:38:56;;;;;;;;;;;;;;;14.35;49.88;98047.38;5134078;27;19934;-62
2023/05/29 03:41:25;;;;;;;;;;;;;;;14.47;49.85;98043.91;5143701;27;19919;-62
2023/05/29 03:43:53;;;;;;;;;;;;;;;14.33;50.95;98044.16;5135429;27;19978;-61
2023/05/29 03:46:24;;;;;;;;;;;;;;;14.19;51.16;98049.06;5126425;27;19923;-61
2023/05/29 03:48:53;;;;;;;;;;;;;;;14.16;51.61;98062.25;5126150;27;19919;-63
2023/05/29 03:51:21;;;;;;;;;;;;;;;14.16;51.49;98056.78;5117897;27;20151;-61
2023/05/29 03:53:51;;;;;;;;;;;;;;;14.24;51.19;98054.34;5118531;27;19919;-62
2023/05/29 03:56:19;;;;;;;;;;;;;;;14.39;50.82;98062.75;5130449;27;19972;-61
2023/05/29 03:58:47;;;;;;;;;;;;;;;14.29;51.54;98065.09;5125942;27;20324;-61
2023/05/29 04:01:15;;;;;;;;;;;;;;;14.08;52.46;98068.59;5125410;27;19923;-60
2023/05/29 04:03:46;;;;;;;;;;;;;;;14.09;52.28;98070.19;5124601;27;20017;-61
2023/05/29 04:06:16;;;;;;;;;;;;;;;13.77;52.87;98068.91;5125542;27;19924;-61
2023/05/29 04:08:43;;;;;;;;;;;;;;;13.56;53.77;98073.47;5114006;27;19932;-60
2023/05/29 04:11:13;;;;;;;;;;;;;;;13.79;53.00;98079.47;5120549;27;19923;-61
2023/05/29 04:13:41;;;;;;;;;;;;;;;14.00;52.52;98077.63;5129261;27;20002;-69
2023/05/29 04:16:10;;;;;;;;;;;;;;;14.15;51.92;98079.78;5123070;27;19920;-61
2023/05/29 04:18:38;;;;;;;;;;;;;;;14.22;51.72;98082.03;5127009;27;19919;-61
2023/05/29 04:21:07;;;;;;;;;;;;;;;14.24;52.12;98087.16;5128770;27;19919;-61
2023/05/29 04:23:35;;;;;;;;;;;;;;;14.31;52.08;98090.16;5149874;27;19923;-67
2023/05/29 04:26:05;;;;;;;;;;;;;;;14.31;52.14;98090.16;5132929;27;20012;-61
2023/05/29 04:28:37;;;;;;;;;;;;;;;14.10;52.04;98090.09;5127811;27;19925;-61
2023/05/29 04:31:05;;;;;;;;;;;;;;;14.13;51.91;98098.44;5128197;27;20378;-61
2023/05/29 04:33:37;;;;;;;;;;;;;;;14.19;51.22;98096.34;5131499;27;19919;-61
2023/05/29 04:36:08;;;;;;;;;;;;;;;14.10;51.30;98092.84;5131318;27;19977;-61
2023/05/29 04:38:37;;;;;;;;;;;;;;;14.26;50.72;98104.00;5128868;27;19927;-61
2023/05/29 04:41:08;;;;;;;;;;;;;;;14.25;51.07;98111.41;5140402;27;19926;-61
2023/05/29 04:43:37;;;;;;;;;;;;;;;14.57;49.99;98114.59;5124818;27;20001;-61
2023/05/29 04:46:07;;;;;;;;;;;;;;;14.57;50.06;98115.41;5120982;27;19934;-61
2023/05/29 04:48:40;;;;;;;;;;;;;;;14.31;50.16;98115.53;5132539;27;20316;-61
2023/05/29 04:51:11;;;;;;;;;;;;;;;14.34;49.97;98125.03;5128932;27;19927;-61
2023/05/29 04:53:39;;;;;;;;;;;;;;;14.24;50.25;98128.13;5142349;27;19933;-60
2023/05/29 04:56:08;;;;;;;;;;;;;;;14.29;50.39;98127.94;5119259;27;19934;-64
2023/05/29 04:58:36;;;;;;;;;;;;;;;14.56;49.43;98132.94;5130137;27;19923;-60
2023/05/29 05:01:05;;;;;;;;;;;;;;;14.66;49.89;98135.28;5119716;27;19978;-62
2023/05/29 05:03:34;;;;;;;;;;;;;;;14.68;50.15;98130.28;5129727;27;21343;-63
2023/05/29 05:06:03;;;;;;;;;;;;;;;14.66;50.35;98126.28;5127065;27;19972;-61
2023/05/29 05:08:33;;;;;;;;;;;;;;;14.85;49.79;98136.75;5127642;27;19927;-62
2023/05/29 05:11:01;;;;;;;;;;;;;;;14.85;48.90;98132.09;5130073;27;19964;-60
2023/05/29 05:13:29;;;;;;;;;;;;;;;14.90;49.11;98139.28;5128925;27;19965;-61
2023/05/29 05:15:57;;;;;;;;;;;;;;;14.93;49.08;98146.84;5130412;27;19968;-69
2023/05/29 05:18:25;;;;;;;;;;;;;;;14.75;49.43;98148.09;5125265;27;20009;-70
2023/05/29 05:21:03;;;;;;;;;;;;;;;15.01;48.71;98156.91;5126908;27;20652;-63
2023/05/29 05:23:35;;;;;;;;;;;;;;;14.85;49.32;98153.16;5115080;28;19977;-61
2023/05/29 05:26:20;;;;;;;;;;;;;;;14.91;48.90;98152.66;5114192;28;20241;-61
2023/05/29 05:28:48;;;;;;;;;;;;;;;15.14;48.43;98144.91;5113643;28;19941;-61
2023/05/29 05:31:17;;;;;;;;;;;;;;;15.26;48.44;98151.56;5125397;28;20433;-62
2023/05/29 05:33:44;;;;;;;;;;;;;;;15.05;48.38;98155.09;5119009;28;19920;-61
2023/05/29 05:36:12;;;;;;;;;;;;;;;15.18;47.73;98155.97;5114503;27;19933;-60
2023/05/29 05:38:43;;;;;;;;;;;;;;;15.18;47.97;98167.72;5123319;27;19934;-61
2023/05/29 05:41:11;;;;;;;;;;;;;;;15.24;47.78;98164.78;5120298;27;19938;-61
2023/05/29 05:43:40;;;;;;;;;;;;;;;15.43;47.28;98163.13;5119260;27;19941;-66
2023/05/29 05:46:18;;;;;;;;;;;;;;;15.50;47.59;98173.56;5120923;27;20356;-60
2023/05/29 05:48:46;;;;;;;;;;;;;;;15.49;47.61;98173.88;5127252;27;20436;-62
2023/05/29 05:51:14;;;;;;;;;;;;;;;15.55;47.19;98178.81;5116129;27;19923;-59
2023/05/29 05:53:45;;;;;;;;;;;;;;;15.77;46.50;98182.34;5122718;27;20202;-59
2023/05/29 05:56:12;;;;;;;;;;;;;;;15.81;46.49;98177.78;5131404;27;20292;-59
2023/05/29 05:58:41;;;;;;;;;;;;;;;15.93;46.48;98173.13;5125630;27;19939;-60
2023/05/29 06:01:11;;;;;;;;;;;;;;;16.06;45.98;98178.63;5123618;27;20365;-60
2023/05/29 06:03:40;;;;;;;;;;;;;;;15.95;46.24;98179.06;5118717;27;19958;-60
2023/05/29 06:06:09;;;;;;;;;;;;;;;16.04;45.92;98180.91;5117889;27;19972;-60
2023/05/29 06:08:41;;;;;;;;;;;;;;;16.15;45.15;98176.59;5112276;27;20364;-61
2023/05/29 06:11:11;;;;;;;;;;;;;;;15.98;45.14;98186.63;5122701;27;19920;-59
2023/05/29 06:13:43;;;;;;;;;;;;;;;16.10;44.90;98185.03;5130393;27;20352;-60
2023/05/29 06:16:31;;;;;;;;;;;;;;;16.16;45.03;98189.16;5126277;27;20010;-59
2023/05/29 06:18:59;;;;;;;;;;;;;;;16.27;44.98;98186.75;5116509;27;20368;-60
2023/05/29 06:21:29;;;;;;;;;;;;;;;16.41;44.82;98190.78;5124959;27;19934;-59
2023/05/29 06:23:57;;;;;;;;;;;;;;;16.55;44.38;98189.59;5118126;27;19923;-59
2023/05/29 06:26:28;;;;;;;;;;;;;;;16.31;44.90;98191.22;5119896;27;19930;-60
2023/05/29 06:28:57;;;;;;;;;;;;;;;16.50;44.28;98193.38;5123964;27;19931;-63
2023/05/29 06:31:28;;;;;;;;;;;;;;;16.72;44.51;98195.72;5125640;27;19920;-59
2023/05/29 06:33:56;;;;;;;;;;;;;;;16.64;44.67;98193.03;5115016;27;19977;-60
2023/05/29 06:36:24;;;;;;;;;;;;;;;16.89;45.79;98194.66;5129872;27;20423;-60
2023/05/29 06:38:52;;;;;;;;;;;;;;;17.09;44.35;98184.63;5119642;27;20260;-60
2023/05/29 06:41:22;;;;;;;;;;;;;;;17.27;44.49;98191.47;5127417;27;19919;-57
2023/05/29 06:43:52;;;;;;;;;;;;;;;17.25;43.28;98196.47;5114529;27;19938;-58
2023/05/29 06:46:22;;;;;;;;;;;;;;;17.34;42.71;98193.59;5122910;27;20004;-59
2023/05/29 06:48:49;;;;;;;;;;;;;;;17.51;42.95;98190.56;5122444;27;19920;-59
2023/05/29 06:51:22;;;;;;;;;;;;;;;17.65;43.11;98197.59;5120789;27;19926;-57
2023/05/29 06:53:56;;;;;;;;;;;;;;;17.47;42.19;98195.16;5131244;27;19931;-58
2023/05/29 06:56:27;;;;;;;;;;;;;;;17.37;42.50;98197.63;5120313;27;19943;-58
2023/05/29 06:58:56;;;;;;;;;;;;;;;17.59;41.55;98194.31;5125483;27;20407;-58
2023/05/29 07:01:24;;;;;;;;;;;;;;;17.79;42.11;98196.06;5122728;27;19931;-58
2023/05/29 07:03:56;;;;;;;;;;;;;;;17.83;41.79;98198.91;5123056;27;19927;-61
2023/05/29 07:06:24;;;;;;;;;;;;;;;17.94;41.28;98199.19;5122177;27;19942;-58
2023/05/29 07:08:52;;;;;;;;;;;;;;;18.04;41.64;98195.91;5121518;27;19924;-60
2023/05/29 07:11:20;;;;;;;;;;;;;;;18.11;40.65;98196.13;5122258;27;19919;-57
2023/05/29 07:13:48;;;;;;;;;;;;;;;18.16;39.26;98195.84;5134848;27;19920;-58
2023/05/29 07:16:18;;;;;;;;;;;;;;;18.24;39.84;98194.88;5117889;27;19920;-57
2023/05/29 07:18:58;;;;;;;;;;;;;;;18.28;39.80;98200.47;5120790;27;19919;-58
2023/05/29 07:21:27;;;;;;;;;;;;;;;18.33;38.99;98203.75;5118623;27;19934;-58
2023/05/29 07:23:55;;;;;;;;;;;;;;;18.46;39.82;98204.44;5123630;27;20006;-59
2023/05/29 07:26:22;;;;;;;;;;;;;;;18.60;39.29;98198.50;5130693;27;19975;-57
2023/05/29 07:28:50;;;;;;;;;;;;;;;18.65;39.78;98197.44;5130238;27;19919;-62
2023/05/29 07:31:20;;;;;;;;;;;;;;;18.65;39.17;98198.22;5135966;27;20264;-57
2023/05/29 07:33:52;;;;;;;;;;;;;;;18.78;38.94;98201.69;5121654;27;19927;-58
2023/05/29 07:36:21;;;;;;;;;;;;;;;18.91;38.87;98199.59;5125699;27;19973;-57
2023/05/29 07:38:53;;;;;;;;;;;;;;;18.96;38.17;98191.88;5124712;27;20336;-58
2023/05/29 07:41:22;;;;;;;;;;;;;;;18.96;38.32;98200.16;5126782;27;20353;-57
2023/05/29 07:43:52;;;;;;;;;;;;;;;19.00;39.26;98201.00;5118897;27;20364;-57
2023/05/29 07:46:22;;;;;;;;;;;;;;;19.08;37.04;98193.72;5124843;27;19919;-58
2023/05/29 07:48:55;;;;;;;;;;;;;;;19.09;37.26;98203.56;5125425;27;19958;-57
2023/05/29 07:51:24;;;;;;;;;;;;;;;19.16;37.44;98200.94;5121805;27;20307;-57
2023/05/29 07:53:54;;;;;;;;;;;;;;;19.27;37.94;98207.47;5139696;27;19919;-58
2023/05/29 07:56:22;;;;;;;;;;;;;;;19.32;37.25;98198.94;5112885;28;19923;-57
2023/05/29 07:58:52;;;;;;;;;;;;;;;19.52;37.30;98208.00;5119974;27;20037;-58
2023/05/29 08:01:21;;;;;;;;;;;;;;;19.57;38.57;98207.72;5123288;27;20426;-58
2023/05/29 08:03:49;;;;;;;;;;;;;;;19.73;35.64;98204.13;5123359;27;19953;-58
2023/05/29 08:06:36;;;;;;;;;;;;;;;19.76;35.71;98201.44;5117506;27;19955;-57
2023/05/29 08:09:05;;;;;;;;;;;;;;;19.74;35.48;98203.75;5118480;27;19923;-57
2023/05/29 08:11:34;;;;;;;;;;;;;;;19.78;34.79;98201.84;5125401;27;20272;-58
2023/05/29 08:14:01;;;;;;;;;;;;;;;19.87;36.22;98196.91;5124140;27;19928;-57
2023/05/29 08:16:32;;;;;;;;;;;;;;;19.98;35.96;98196.31;5125890;27;19919;-57
2023/05/29 08:18:59;;;;;;;;;;;;;;;20.08;35.02;98198.44;5131724;27;19943;-58
2023/05/29 08:21:27;;;;;;;;;;;;;;;20.14;34.55;98208.03;5112739;27;19923;-57
2023/05/29 08:23:55;;;;;;;;;;;;;;;20.21;33.29;98199.06;5101597;28;19919;-60
2023/05/29 08:26:22;;;;;;;;;;;;;;;20.26;33.01;98199.56;5104240;28;19973;-59
2023/05/29 08:28:50;;;;;;;;;;;;;;;20.26;32.42;98198.78;5106970;28;20297;-60
2023/05/29 08:31:18;;;;;;;;;;;;;;;20.33;33.45;98191.41;5106496;28;19924;-59
2023/05/29 08:33:47;;;;;;;;;;;;;;;20.50;32.58;98194.84;5105749;28;19959;-59
2023/05/29 08:36:15;;;;;;;;;;;;;;;20.56;31.99;98191.44;5099535;28;20672;-60
2023/05/29 08:38:43;;;;;;;;;;;;;;;20.61;32.26;98193.06;5105605;28;19931;-59
2023/05/29 08:41:11;;;;;;;;;;;;;;;20.57;32.78;98194.97;5094579;28;19924;-58
2023/05/29 08:43:39;;;;;;;;;;;;;;;20.58;31.31;98188.28;5103439;28;19928;-60
2023/05/29 08:46:06;;;;;;;;;;;;;;;20.67;31.23;98180.56;5103862;28;20373;-58
2023/05/29 08:48:34;;;;;;;;;;;;;;;20.62;30.73;98183.63;5098985;28;19927;-57
2023/05/29 08:51:03;;;;;;;;;;;;;;;20.79;30.62;98176.78;5097570;28;19971;-57
2023/05/29 08:53:32;;;;;;;;;;;;;;;20.86;30.61;98176.88;5108670;28;19924;-58
2023/05/29 08:56:00;;;;;;;;;;;;;;;20.77;30.96;98182.66;5102228;28;20377;-57
2023/05/29 08:58:28;;;;;;;;;;;;;;;20.80;31.53;98173.63;5106725;28;20279;-58
2023/05/29 09:00:56;;;;;;;;;;;;;;;20.85;31.04;98170.56;5105629;28;20018;-57
2023/05/29 09:03:24;;;;;;;;;;;;;;;20.93;30.63;98180.53;5101309;28;19919;-58
2023/05/29 09:05:53;;;;;;;;;;;;;;;21.00;30.74;98166.03;5112553;28;19920;-60
2023/05/29 09:08:23;;;;;;;;;;;;;;;20.86;30.95;98174.09;5110516;28;20272;-57
2023/05/29 09:10:51;;;;;;;;;;;;;;;20.98;31.50;98162.03;5102863;28;19927;-58
2023/05/29 09:13:19;;;;;;;;;;;;;;;21.02;31.24;98165.66;5091292;28;19920;-57
2023/05/29 09:15:47;;;;;;;;;;;;;;;21.10;30.81;98164.59;5092692;28;19965;-57
2023/05/29 09:18:17;;;;;;;;;;;;;;;21.09;30.38;98168.50;5100065;28;19931;-57
2023/05/29 09:20:45;;;;;;;;;;;;;;;21.14;30.75;98168.16;5131852;27;20372;-57
2023/05/29 09:23:15;;;;;;;;;;;;;;;21.24;29.44;98169.47;5130731;27;20211;-57
2023/05/29 09:25:44;;;;;;;;;;;;;;;21.20;29.37;98169.47;5135770;27;20305;-57
2023/05/29 09:28:12;;;;;;;;;;;;;;;21.19;28.92;98170.59;5131510;27;19987;-57
2023/05/29 09:30:44;;;;;;;;;;;;;;;21.31;28.56;98175.16;5132087;27;19919;-57
2023/05/29 09:33:15;;;;;;;;;;;;;;;21.22;28.42;98171.84;5117529;27;19919;-57
2023/05/29 09:35:43;;;;;;;;;;;;;;;21.28;28.55;98168.34;5132421;27;19920;-57
2023/05/29 09:38:11;;;;;;;;;;;;;;;21.50;29.67;98171.41;5132685;27;19924;-58
2023/05/29 09:40:46;;;;;;;;;;;;;;;21.33;29.11;98179.09;5115422;28;19980;-57
2023/05/29 09:43:16;;;;;;;;;;;;;;;21.46;29.21;98171.34;5129894;27;19924;-57
2023/05/29 09:45:44;;;;;;;;;;;;;;;21.44;29.37;98162.66;5145259;27;20359;-57
2023/05/29 09:48:13;;;;;;;;;;;;;;;21.72;28.21;98164.94;5134753;27;19935;-57
2023/05/29 09:50:45;;;;;;;;;;;;;;;21.76;28.00;98174.06;5132701;27;19919;-57
2023/05/29 09:53:20;;;;;;;;;;;;;;;21.91;27.48;98170.28;5135361;27;20357;-57
2023/05/29 09:55:50;;;;;;;;;;;;;;;21.88;27.27;98171.03;5133567;27;19931;-57
2023/05/29 09:58:18;;;;;;;;;;;;;;;21.81;26.78;98170.19;5132758;27;19926;-57
2023/05/29 10:00:47;;;;;;;;;;;;;;;21.82;27.53;98167.03;5145972;27;19924;-57
2023/05/29 10:03:15;;;;;;;;;;;;;;;21.93;27.36;98173.44;5139280;27;20363;-59
2023/05/29 10:05:43;;;;;;;;;;;;;;;22.02;26.38;98172.38;5133350;27;19974;-57
2023/05/29 10:08:12;;;;;;;;;;;;;;;22.00;26.70;98166.41;5123676;28;20707;-58
2023/05/29 10:10:41;;;;;;;;;;;;;;;21.97;26.90;98165.19;5132342;27;19962;-57
2023/05/29 10:13:13;;;;;;;;;;;;;;;22.16;26.51;98169.75;5130960;27;19923;-58
2023/05/29 10:15:44;;;;;;;;;;;;;;;21.90;26.81;98165.13;5135011;27;20351;-57
2023/05/29 10:18:13;;;;;;;;;;;;;;;22.00;25.86;98152.56;5132169;27;19949;-57
2023/05/29 10:20:41;;;;;;;;;;;;;;;22.04;26.68;98161.69;5130463;27;19927;-57
2023/05/29 10:23:09;;;;;;;;;;;;;;;22.22;25.55;98160.72;5135753;27;19964;-57
2023/05/29 10:25:37;;;;;;;;;;;;;;;22.26;26.17;98166.28;5133939;27;19919;-57
2023/05/29 10:28:05;;;;;;;;;;;;;;;22.45;25.65;98165.25;5139495;27;19950;-57
2023/05/29 10:30:37;;;;;;;;;;;;;;;22.19;25.81;98155.16;5135487;27;19965;-58
2023/05/29 10:33:23;;;;;;;;;;;;;;;22.26;26.93;98155.19;5134569;27;20360;-57
2023/05/29 10:35:52;;;;;;;;;;;;;;;22.23;26.34;98147.69;5133721;27;19920;-58
2023/05/29 10:38:21;;;;;;;;;;;;;;;22.29;26.49;98150.88;5153912;27;20265;-58
2023/05/29 10:40:48;;;;;;;;;;;;;;;22.45;26.36;98151.41;5135250;27;19919;-57
2023/05/29 10:43:30;;;;;;;;;;;;;;;22.44;25.71;98152.59;5134055;27;19919;-57
2023/05/29 10:46:00;;;;;;;;;;;;;;;22.39;25.47;98145.44;5135874;27;20336;-58
2023/05/29 10:48:38;;;;;;;;;;;;;;;22.45;24.33;98143.09;5153514;27;20331;-57
2023/05/29 10:51:09;;;;;;;;;;;;;;;22.60;24.83;98144.00;5139252;27;20365;-57
2023/05/29 10:53:40;;;;;;;;;;;;;;;22.59;23.96;98142.41;5134782;27;19920;-58
2023/05/29 10:56:09;;;;;;;;;;;;;;;22.62;24.55;98139.66;5136043;27;19919;-58
2023/05/29 10:58:36;;;;;;;;;;;;;;;22.74;24.24;98146.84;5143798;27;19920;-57
2023/05/29 11:01:06;;;;;;;;;;;;;;;22.79;23.12;98142.91;5150831;27;19958;-57
2023/05/29 11:03:34;;;;;;;;;;;;;;;22.88;24.65;98135.09;5149365;27;19925;-57
2023/05/29 11:06:04;;;;;;;;;;;;;;;22.92;24.50;98133.16;5137798;27;19919;-58
2023/05/29 11:08:34;;;;;;;;;;;;;;;23.10;24.00;98133.22;5136310;27;19923;-57
2023/05/29 11:11:01;;;;;;;;;;;;;;;23.12;23.86;98134.44;5128976;27;19920;-57
2023/05/29 11:13:34;;;;;;;;;;;;;;;23.10;23.53;98136.78;5133589;27;20018;-58
2023/05/29 11:16:07;;;;;;;;;;;;;;;23.05;24.22;98139.13;5151308;27;20014;-59
2023/05/29 11:18:39;;;;;;;;;;;;;;;23.00;24.05;98129.22;5153825;27;19942;-59
2023/05/29 11:21:09;;;;;;;;;;;;;;;23.06;23.57;98132.41;5153210;27;19919;-57
2023/05/29 11:23:37;;;;;;;;;;;;;;;22.87;23.74;98130.72;5146236;27;19926;-60
2023/05/29 11:26:05;;;;;;;;;;;;;;;22.97;24.15;98128.03;5142240;27;20014;-58
2023/05/29 11:28:33;;;;;;;;;;;;;;;23.02;23.74;98142.72;5147727;27;20329;-57
2023/05/29 11:31:04;;;;;;;;;;;;;;;23.12;24.00;98128.13;5135668;27;19923;-58
2023/05/29 11:33:33;;;;;;;;;;;;;;;23.10;24.63;98131.25;5141637;27;20364;-58
2023/05/29 11:36:01;;;;;;;;;;;;;;;23.20;24.51;98126.94;5138603;27;19923;-57
2023/05/29 11:38:29;;;;;;;;;;;;;;;23.03;24.69;98116.59;5148870;27;20319;-57
2023/05/29 11:40:57;;;;;;;;;;;;;;;23.24;23.58;98125.78;5148654;27;19919;-59
2023/05/29 11:43:25;;;;;;;;;;;;;;;23.29;23.28;98124.59;5152493;27;19925;-58
2023/05/29 11:45:53;;;;;;;;;;;;;;;23.30;22.63;98131.72;5135771;27;19920;-58
2023/05/29 11:48:21;;;;;;;;;;;;;;;23.23;22.76;98120.63;5136167;27;19920;-57
2023/05/29 11:50:50;;;;;;;;;;;;;;;23.32;23.70;98128.56;5131104;27;19920;-57
2023/05/29 11:53:19;;;;;;;;;;;;;;;23.53;24.52;98132.19;5136563;27;20417;-59
2023/05/29 11:55:47;;;;;;;;;;;;;;;23.48;23.65;98140.91;5132234;27;20271;-58
2023/05/29 11:58:16;;;;;;;;;;;;;;;23.50;23.48;98130.22;5131116;27;19919;-58
2023/05/29 12:00:46;;;;;;;;;;;;;;;23.33;23.74;98130.97;5150377;27;19932;-57
2023/05/29 12:03:14;;;;;;;;;;;;;;;23.35;22.87;98133.34;5140816;27;19924;-58
2023/05/29 12:05:45;;;;;;;;;;;;;;;23.42;23.50;98127.81;5133245;27;20276;-58
2023/05/29 12:08:15;;;;;;;;;;;;;;;23.46;23.59;98126.63;5140820;27;20371;-57
2023/05/29 12:10:52;;;;;;;;;;;;;;;23.46;23.65;98121.09;5136508;27;19964;-58
2023/05/29 12:13:20;;;;;;;;;;;;;;;23.56;23.16;98121.53;5133973;27;19925;-59
2023/05/29 12:15:48;;;;;;;;;;;;;;;23.56;22.44;98113.22;5134007;27;19926;-58
2023/05/29 12:18:16;;;;;;;;;;;;;;;23.55;23.99;98120.72;5138981;27;19973;-59
2023/05/29 12:20:44;;;;;;;;;;;;;;;23.77;23.68;98127.16;5127863;27;19919;-60
2023/05/29 12:23:12;;;;;;;;;;;;;;;23.73;22.20;98129.13;5112138;28;19947;-59
2023/05/29 12:25:43;;;;;;;;;;;;;;;23.76;22.46;98126.34;5111393;28;20014;-56
2023/05/29 12:28:12;;;;;;;;;;;;;;;23.71;23.15;98123.97;5112245;28;20353;-58
2023/05/29 12:30:41;;;;;;;;;;;;;;;23.60;23.46;98122.34;5120452;27;19924;-58
2023/05/29 12:33:09;;;;;;;;;;;;;;;23.60;22.96;98117.56;5122704;27;19923;-59
2023/05/29 12:35:37;;;;;;;;;;;;;;;23.37;23.01;98112.34;5118288;27;19920;-58
2023/05/29 12:38:08;;;;;;;;;;;;;;;23.39;23.68;98118.31;5118863;27;19920;-58
2023/05/29 12:40:36;;;;;;;;;;;;;;;23.58;23.28;98119.13;5115187;27;19923;-58
2023/05/29 12:43:08;;;;;;;;;;;;;;;23.62;24.73;98103.31;5112135;28;20414;-59
2023/05/29 12:45:36;;;;;;;;;;;;;;;23.64;23.29;98121.16;5120924;27;20247;-58
2023/05/29 12:48:05;;;;;;;;;;;;;;;23.72;23.33;98125.56;5117411;27;20405;-58
2023/05/29 12:50:33;;;;;;;;;;;;;;;23.63;23.95;98110.47;5130662;27;19920;-58
2023/05/29 12:53:01;;;;;;;;;;;;;;;23.60;23.84;98114.00;5123225;27;20014;-58
2023/05/29 12:55:30;;;;;;;;;;;;;;;23.67;22.51;98114.06;5123787;27;19972;-58
2023/05/29 12:57:58;;;;;;;;;;;;;;;23.68;23.38;98096.22;5125768;27;19943;-59